createdAt,value
2023-01-25T00:01:09.392Z,11.70
2023-01-25T00:06:07.317Z,11.68
2023-01-25T00:11:04.385Z,16.50
2023-01-25T00:16:02.002Z,16.23
2023-01-25T00:20:58.712Z,15.65
2023-01-25T00:25:58.805Z,13.40
2023-01-25T00:30:59.869Z,13.93
2023-01-25T00:35:57.089Z,15.80
2023-01-25T00:40:53.805Z,18.10
2023-01-25T00:45:51.505Z,14.68
2023-01-25T00:50:48.357Z,15.60
2023-01-25T00:55:51.924Z,15.30
2023-01-25T01:00:48.757Z,14.60
2023-01-25T01:05:46.455Z,14.68
2023-01-25T01:10:43.544Z,14.75
2023-01-25T01:15:41.270Z,15.23
2023-01-25T01:20:38.085Z,15.65
2023-01-25T01:25:35.548Z,13.65
2023-01-25T01:30:32.351Z,13.77
2023-01-25T01:35:29.482Z,14.73
2023-01-25T01:40:26.619Z,13.80
2023-01-25T01:45:50.972Z,13.40
2023-01-25T01:50:56.521Z,15.98
2023-01-25T01:55:59.177Z,12.68
2023-01-25T02:00:57.000Z,11.63
2023-01-25T02:06:00.251Z,9.70
2023-01-25T02:10:58.442Z,12.73
2023-01-25T02:15:56.248Z,14.32
2023-01-25T02:20:57.233Z,14.50
2023-01-25T02:25:58.297Z,17.40
2023-01-25T02:30:55.133Z,16.25
2023-01-25T02:35:59.732Z,13.48
2023-01-25T02:41:02.990Z,15.85
2023-01-25T02:46:10.150Z,12.90
2023-01-25T02:51:07.854Z,16.70
2023-01-25T02:56:05.996Z,16.80
2023-01-25T03:01:03.205Z,16.05
2023-01-25T03:05:59.996Z,18.52
2023-01-25T03:10:58.280Z,17.88
2023-01-25T03:16:00.528Z,20.02
2023-01-25T03:21:03.623Z,18.83
2023-01-25T03:26:08.983Z,18.73
2023-01-25T03:31:12.448Z,20.00
2023-01-25T03:36:10.199Z,18.48
2023-01-25T03:41:08.854Z,16.67
2023-01-25T03:46:05.955Z,19.50
2023-01-25T03:51:04.649Z,17.77
2023-01-25T03:56:04.251Z,18.27
2023-01-25T04:01:02.564Z,20.35
2023-01-25T04:06:00.307Z,22.15
2023-01-25T04:11:02.829Z,19.27
2023-01-25T04:15:59.691Z,20.85
2023-01-25T04:21:16.727Z,17.48
2023-01-25T04:26:15.038Z,18.25
2023-01-25T04:31:18.420Z,18.60
2023-01-25T04:36:15.472Z,20.30
2023-01-25T04:41:13.249Z,19.60
2023-01-25T04:46:12.886Z,19.65
2023-01-25T04:51:10.266Z,19.25
2023-01-25T04:56:07.523Z,18.25
2023-01-25T05:01:14.412Z,19.05
2023-01-25T05:06:13.478Z,18.80
2023-01-25T05:11:10.501Z,15.10
2023-01-25T05:16:25.160Z,18.48
2023-01-25T05:21:40.308Z,19.30
2023-01-25T05:26:57.105Z,21.48
2023-01-25T05:31:56.522Z,22.03
2023-01-25T05:36:55.768Z,18.25
2023-01-25T05:41:57.885Z,21.95
2023-01-25T05:46:56.807Z,18.35
2023-01-25T05:51:54.947Z,20.10
2023-01-25T05:56:52.115Z,17.83
2023-01-25T06:01:49.180Z,21.23
2023-01-25T06:06:51.438Z,25.23
2023-01-25T06:11:48.747Z,25.40
2023-01-25T06:16:49.748Z,32.55
2023-01-25T06:22:08.613Z,22.92
2023-01-25T06:27:05.486Z,23.30
2023-01-25T06:32:02.330Z,17.17
2023-01-25T06:36:59.284Z,24.15
2023-01-25T06:41:56.812Z,21.00
2023-01-25T06:46:53.673Z,23.15
2023-01-25T06:51:50.470Z,22.65
2023-01-25T06:56:49.811Z,18.27
2023-01-25T07:01:47.362Z,24.58
2023-01-25T07:06:44.412Z,19.80
2023-01-25T07:11:43.042Z,20.88
2023-01-25T07:16:43.045Z,27.27
2023-01-25T07:21:40.663Z,26.00
2023-01-25T07:26:37.805Z,27.13
2023-01-25T07:31:34.608Z,29.05
2023-01-25T07:36:32.526Z,26.52
2023-01-25T07:41:30.061Z,31.17
2023-01-25T07:46:28.806Z,26.90
2023-01-25T07:51:27.237Z,28.73
2023-01-25T07:56:26.222Z,25.20
2023-01-25T08:01:25.523Z,27.67
2023-01-25T08:06:26.620Z,25.65
2023-01-25T08:11:25.935Z,29.30
2023-01-25T08:16:25.711Z,23.77
2023-01-25T08:21:24.874Z,19.40
2023-01-25T08:26:21.784Z,22.38
2023-01-25T08:31:21.063Z,28.85
2023-01-25T08:36:20.160Z,19.13
2023-01-25T08:41:19.219Z,18.73
2023-01-25T08:46:17.417Z,27.85
2023-01-25T08:51:18.695Z,20.88
2023-01-25T08:56:16.925Z,26.55
2023-01-25T09:01:15.610Z,22.40
2023-01-25T09:06:13.183Z,18.58
2023-01-25T09:11:13.016Z,28.35
2023-01-25T09:16:12.870Z,22.13
2023-01-25T09:21:14.961Z,18.13
2023-01-25T09:26:15.869Z,33.55
2023-01-25T09:31:21.733Z,18.58
2023-01-25T09:36:39.680Z,28.20
2023-01-25T09:42:06.657Z,31.58
2023-01-25T09:47:17.787Z,47.55
2023-01-25T09:52:27.079Z,34.72
2023-01-25T09:57:30.173Z,26.67
2023-01-25T10:02:38.189Z,25.38
2023-01-25T10:07:50.139Z,24.42
2023-01-25T10:12:47.914Z,21.67
2023-01-25T10:17:49.830Z,23.30
2023-01-25T10:22:57.379Z,21.38
2023-01-25T10:28:16.728Z,24.38
2023-01-25T10:33:18.034Z,19.65
2023-01-25T10:38:19.945Z,29.02
2023-01-25T10:43:20.173Z,19.73
2023-01-25T10:48:21.764Z,21.65
2023-01-25T10:53:23.474Z,24.38
2023-01-25T10:58:31.268Z,25.48
2023-01-25T11:03:35.517Z,21.77
2023-01-25T11:09:07.903Z,21.00
2023-01-25T11:14:17.057Z,19.95
2023-01-25T11:19:31.982Z,20.30
2023-01-25T11:24:31.512Z,21.65
2023-01-25T11:29:33.378Z,21.08
2023-01-25T11:34:33.481Z,25.73
2023-01-25T11:39:47.142Z,24.23
2023-01-25T11:45:35.527Z,21.40
2023-01-25T11:50:38.413Z,19.70
2023-01-25T11:55:40.549Z,18.98
2023-01-25T12:00:53.226Z,17.08
2023-01-25T12:05:58.000Z,18.70
2023-01-25T12:11:00.419Z,15.88
2023-01-25T12:16:25.864Z,15.18
2023-01-25T12:21:35.721Z,13.90
2023-01-25T12:26:43.586Z,17.92
2023-01-25T12:31:48.144Z,21.65
2023-01-25T12:36:47.666Z,17.95
2023-01-25T12:41:50.089Z,18.05
2023-01-25T12:46:55.077Z,19.20
2023-01-25T12:51:55.062Z,18.20
2023-01-25T12:57:05.509Z,13.25
2023-01-25T13:02:19.052Z,17.27
2023-01-25T13:07:22.237Z,14.95
2023-01-25T13:12:19.038Z,15.90
2023-01-25T13:17:30.633Z,20.45
2023-01-25T13:22:58.098Z,26.38
2023-01-25T13:28:25.664Z,30.40
2023-01-25T13:33:35.631Z,24.75
2023-01-25T13:38:36.327Z,16.58
2023-01-25T13:43:33.398Z,18.85
2023-01-25T13:48:35.064Z,15.30
2023-01-25T13:53:34.671Z,23.02
2023-01-25T13:58:33.691Z,17.13
2023-01-25T14:03:34.560Z,20.02
2023-01-25T14:08:32.434Z,21.90
2023-01-25T14:13:29.497Z,27.77
2023-01-25T14:18:29.900Z,18.95
2023-01-25T14:23:29.278Z,23.52
2023-01-25T14:28:27.044Z,24.40
2023-01-25T14:33:27.387Z,25.30
2023-01-25T14:38:27.982Z,17.25
2023-01-25T14:43:26.260Z,17.73
2023-01-25T14:48:36.968Z,20.48
2023-01-25T14:53:39.092Z,17.58
2023-01-25T14:58:35.934Z,21.33
2023-01-25T15:03:32.802Z,18.52
2023-01-25T15:08:30.978Z,26.00
2023-01-25T15:13:28.991Z,22.20
2023-01-25T15:18:42.769Z,16.75
2023-01-25T15:23:41.633Z,18.92
2023-01-25T15:28:39.145Z,16.52
2023-01-25T15:33:35.963Z,16.73
2023-01-25T15:38:32.792Z,20.10
2023-01-25T15:43:29.561Z,20.33
2023-01-25T15:48:32.549Z,18.13
2023-01-25T15:53:30.277Z,22.33
2023-01-25T15:58:31.323Z,18.92
2023-01-25T16:03:41.090Z,21.00
2023-01-25T16:08:53.097Z,17.60
2023-01-25T16:13:50.755Z,22.73
2023-01-25T16:18:49.144Z,31.05
2023-01-25T16:23:46.099Z,23.15
2023-01-25T16:28:43.058Z,21.63
2023-01-25T16:33:42.178Z,27.67
2023-01-25T16:38:39.724Z,27.90
2023-01-25T16:43:42.725Z,23.23
2023-01-25T16:48:39.747Z,17.73
2023-01-25T16:53:36.750Z,18.15
2023-01-25T16:58:35.279Z,19.42
2023-01-25T17:03:32.101Z,18.48
2023-01-25T17:08:28.899Z,20.52
2023-01-25T17:13:25.757Z,20.60
2023-01-25T17:18:23.214Z,19.90
2023-01-25T17:23:20.106Z,21.35
2023-01-25T17:28:17.038Z,19.13
2023-01-25T17:33:15.876Z,14.98
2023-01-25T17:38:13.663Z,19.23
2023-01-25T17:43:11.065Z,16.65
2023-01-25T17:48:08.640Z,15.63
2023-01-25T17:53:06.449Z,19.10
2023-01-25T17:58:05.909Z,17.88
2023-01-25T18:03:02.725Z,24.52
2023-01-25T18:07:59.529Z,18.88
2023-01-25T18:13:04.662Z,20.33
2023-01-25T18:18:04.983Z,18.25
2023-01-25T18:23:02.083Z,19.63
2023-01-25T18:28:01.463Z,21.95
2023-01-25T18:33:01.149Z,21.77
2023-01-25T18:37:59.122Z,24.27
2023-01-25T18:42:56.015Z,20.38
2023-01-25T18:47:52.908Z,21.20
2023-01-25T18:52:51.119Z,22.48
2023-01-25T18:57:49.211Z,18.40
2023-01-25T19:02:47.270Z,21.42
2023-01-25T19:07:44.259Z,19.98
2023-01-25T19:12:43.642Z,23.10
2023-01-25T19:17:41.928Z,26.20
2023-01-25T19:22:42.108Z,21.70
2023-01-25T19:27:41.228Z,20.58
2023-01-25T19:32:38.278Z,22.73
2023-01-25T19:37:54.398Z,19.80
2023-01-25T19:42:51.607Z,21.77
2023-01-25T19:47:48.517Z,19.42
2023-01-25T19:52:46.158Z,23.98
2023-01-25T19:57:42.962Z,21.52
2023-01-25T20:02:40.008Z,20.35
2023-01-25T20:07:36.888Z,19.13
2023-01-25T20:12:34.918Z,23.15
2023-01-25T20:17:42.640Z,24.65
2023-01-25T20:22:39.631Z,21.50
2023-01-25T20:27:39.303Z,21.00
2023-01-25T20:32:36.204Z,19.48
2023-01-25T20:37:33.073Z,19.30
2023-01-25T20:42:30.203Z,23.50
2023-01-25T20:47:27.683Z,20.40
2023-01-25T20:52:24.543Z,24.40
2023-01-25T20:57:21.429Z,21.65
2023-01-25T21:02:18.525Z,18.98
2023-01-25T21:07:16.152Z,23.88
2023-01-25T21:12:17.802Z,19.58
2023-01-25T21:17:14.881Z,20.45
2023-01-25T21:22:11.897Z,23.05
2023-01-25T21:27:12.721Z,21.88
2023-01-25T21:32:09.701Z,20.48
2023-01-25T21:37:06.487Z,19.65
2023-01-25T21:42:03.367Z,21.33
2023-01-25T21:47:27.851Z,22.30
2023-01-25T21:52:17.647Z,19.70
2023-01-25T21:57:14.443Z,19.92
2023-01-25T22:02:13.783Z,25.15
2023-01-25T22:07:11.317Z,23.25
2023-01-25T22:12:08.143Z,25.20
2023-01-25T22:17:05.154Z,25.60
2023-01-25T22:22:02.616Z,22.33
2023-01-25T22:27:36.684Z,23.00
2023-01-25T22:32:33.465Z,23.50
2023-01-25T22:37:33.818Z,24.30
2023-01-25T22:42:30.594Z,26.85
2023-01-25T22:47:27.447Z,27.92
2023-01-25T22:52:24.409Z,27.27
2023-01-25T22:57:21.931Z,29.02
2023-01-25T23:02:18.900Z,26.73
2023-01-25T23:07:18.227Z,28.05
2023-01-25T23:12:15.192Z,27.38
2023-01-25T23:17:30.466Z,35.08
2023-01-25T23:22:27.389Z,28.83
2023-01-25T23:27:24.138Z,29.30
2023-01-25T23:32:21.627Z,34.80
2023-01-25T23:37:19.219Z,31.33
2023-01-25T23:42:16.337Z,29.52
2023-01-25T23:47:13.179Z,31.23
2023-01-25T23:52:10.741Z,31.73
2023-01-25T23:57:07.529Z,35.40
